Terminal Aerodrome Forecast
Issued by NWS

Home | Current Version | Previous Version | Text Only | Print | Product List | Glossary On
Versions: 1 2 3 4 5 6 7 8 9 10 11 12 13 14 15 16 17 18 19 20 21 22 23
000
FTUS41 KBGM 270500
TAFITH
TAF
KITH 270535Z 2706/2806 35007KT P6SM -SHSN OVC035
     FM271000 36008KT 5SM -SHSN OVC025
     FM271500 33012G20KT 4SM -SHSN OVC025
     FM280000 33010KT 4SM -SHSN OVC025=

USA.gov is the U.S. government's official web portal to all federal, state and local government web resources and services.